createdAt,value
2017-08-23T14:22:26.938Z,18.16
2017-08-23T14:22:59.274Z,18.25
2017-08-23T14:23:18.741Z,18.31
2017-08-23T14:23:38.432Z,18.24
2017-08-23T14:23:56.867Z,18.4
2017-08-23T14:24:17.084Z,18.46
2017-08-23T14:24:35.596Z,18.61
2017-08-23T14:24:55.342Z,18.64
2017-08-23T14:25:14.746Z,18.62
2017-08-23T14:25:47.601Z,18.74
2017-08-23T14:26:07.861Z,18.64
2017-08-23T14:26:26.158Z,18.65
2017-08-23T14:26:45.936Z,18.74
2017-08-23T14:27:04.410Z,18.62
2017-08-23T14:27:25.422Z,18.44
2017-08-23T14:27:44.359Z,18.5
2017-08-23T14:28:03.198Z,18.37
2017-08-23T14:28:23.290Z,18.4
2017-08-23T14:28:42.986Z,18.52
2017-08-23T14:29:02.401Z,18.65
2017-08-23T14:29:21.951Z,18.61
2017-08-23T14:29:40.873Z,18.47
2017-08-23T14:30:14.222Z,18.46
2017-08-23T14:30:33.417Z,18.5
2017-08-23T14:30:52.363Z,18.44
2017-08-23T14:31:15.824Z,18.4
2017-08-23T14:31:34.734Z,18.43
2017-08-23T14:32:08.600Z,18.49
2017-08-23T14:32:27.102Z,18.47
2017-08-23T14:32:46.866Z,18.71
2017-08-23T14:33:19.955Z,18.58
2017-08-23T14:33:39.391Z,18.52
2017-08-23T14:33:59.039Z,18.52
2017-08-23T14:34:17.897Z,18.47
2017-08-23T14:34:37.544Z,18.5
2017-08-23T14:34:56.585Z,18.5
2017-08-23T14:35:29.970Z,18.58
2017-08-23T14:36:36.432Z,18.94
2017-08-23T14:36:56.004Z,19.01
2017-08-23T14:37:14.395Z,18.97
2017-08-23T14:37:32.732Z,19.14
2017-08-23T14:37:52.469Z,19.2
2017-08-23T14:38:11.954Z,19.13
2017-08-23T14:38:30.894Z,19.18
2017-08-23T14:38:50.353Z,18.99
2017-08-23T14:39:24.264Z,19.11
2017-08-23T14:39:42.370Z,19.17
2017-08-23T14:40:00.745Z,19.28
2017-08-23T14:40:19.189Z,19.43
2017-08-23T14:40:38.269Z,19.39
2017-08-23T14:40:57.187Z,19.46
2017-08-23T14:41:16.898Z,19.6
2017-08-23T14:42:23.700Z,19.28
2017-08-23T14:42:42.118Z,19.32
2017-08-23T14:43:01.793Z,19.14
2017-08-23T14:43:34.710Z,19.09
2017-08-23T14:43:53.728Z,19.13
2017-08-23T14:44:12.702Z,19.01
2017-08-23T14:44:32.477Z,19.13
2017-08-23T14:44:52.342Z,19.2
2017-08-23T14:45:11.843Z,19.23
2017-08-23T14:45:31.337Z,19.31
2017-08-23T14:45:50.983Z,19.63
2017-08-23T14:46:11.158Z,19.65
2017-08-23T14:46:31.219Z,19.71
2017-08-23T14:46:50.490Z,19.73
2017-08-23T14:47:09.550Z,19.73
2017-08-23T14:47:29.026Z,19.88
2017-08-23T14:48:02.712Z,20.03
2017-08-23T14:48:21.309Z,20.08
2017-08-23T14:48:40.798Z,19.91
2017-08-23T14:49:00.332Z,19.86
2017-08-23T14:49:19.692Z,20.16
2017-08-23T14:49:38.533Z,20.35
2017-08-23T14:49:57.852Z,20.64
2017-08-23T14:50:15.642Z,20.68
2017-08-23T14:50:35.246Z,20.8
2017-08-23T14:51:08.769Z,21.06
2017-08-23T14:51:27.579Z,21.16
2017-08-23T14:51:46.677Z,21.05
2017-08-23T14:52:05.558Z,21.19
2017-08-23T14:52:38.455Z,21.31
2017-08-23T14:52:58.068Z,21.01
2017-08-23T14:53:17.221Z,20.83
2017-08-23T14:53:36.648Z,20.46
2017-08-23T14:53:56.027Z,20.09
2017-08-23T14:54:29.393Z,20.06
2017-08-23T14:54:48.797Z,20.03
2017-08-23T14:55:07.737Z,19.86
2017-08-23T14:55:27.340Z,19.94
2017-08-23T14:55:47.298Z,20.09
2017-08-23T14:56:20.833Z,20.27
2017-08-23T14:56:40.230Z,20.47
2017-08-23T14:56:59.091Z,20.43
2017-08-23T14:57:18.631Z,20.5
2017-08-23T14:57:38.219Z,20.42
2017-08-23T14:57:57.642Z,20.33
2017-08-23T14:58:17.075Z,20.27
2017-08-23T14:58:35.940Z,20.03
2017-08-23T14:58:55.252Z,20.05
2017-08-23T14:59:14.631Z,20.08
2017-08-23T14:59:33.462Z,19.93
2017-08-23T14:59:52.332Z,19.82
2017-08-23T15:00:11.208Z,19.83
2017-08-23T15:00:30.861Z,19.71
2017-08-23T15:00:50.245Z,19.94
2017-08-23T15:01:09.639Z,19.86
2017-08-23T15:01:29.119Z,19.87
2017-08-23T15:01:49.064Z,20
2017-08-23T15:02:08.507Z,20.13
2017-08-23T15:02:27.884Z,20.27
2017-08-23T15:02:47.363Z,20.33
2017-08-23T15:03:05.797Z,20.35
2017-08-23T15:03:25.464Z,20.51
2017-08-23T15:03:44.794Z,20.49
2017-08-23T15:04:03.594Z,20.33
2017-08-23T15:04:22.465Z,20.4
2017-08-23T15:04:54.278Z,20.68
2017-08-23T15:05:13.268Z,20.64
2017-08-23T15:05:46.871Z,20.53
2017-08-23T15:06:06.457Z,20.47
2017-08-23T15:06:39.802Z,20.53
2017-08-23T15:06:59.415Z,20.54
2017-08-23T15:07:18.456Z,20.65
2017-08-23T15:07:37.965Z,20.74
2017-08-23T15:08:30.190Z,21.01
2017-08-23T15:08:49.815Z,21.26
2017-08-23T15:09:08.713Z,21.49
2017-08-23T15:09:42.158Z,21.42
2017-08-23T15:10:01.880Z,21.39
2017-08-23T15:10:21.228Z,21.21
2017-08-23T15:10:40.327Z,21.2
2017-08-23T15:10:59.192Z,20.83
2017-08-23T15:11:18.282Z,20.79
2017-08-23T15:11:36.612Z,20.82
2017-08-23T15:11:56.083Z,20.89
2017-08-23T15:12:13.920Z,20.82
2017-08-23T15:12:33.633Z,20.82
2017-08-23T15:12:52.530Z,20.83
2017-08-23T15:13:10.948Z,20.99
2017-08-23T15:13:44.540Z,21.2
2017-08-23T15:14:03.888Z,21.3
2017-08-23T15:14:23.260Z,21.42
2017-08-23T15:14:42.652Z,21.45
2017-08-23T15:15:02.121Z,21.57
2017-08-23T15:15:21.006Z,21.63
2017-08-23T15:15:53.846Z,21.76
2017-08-23T15:16:13.287Z,21.89
2017-08-23T15:16:31.598Z,21.72
2017-08-23T15:16:50.886Z,21.86
2017-08-23T15:17:09.772Z,21.92
2017-08-23T15:17:29.186Z,22.02
2017-08-23T15:17:49.013Z,22.19
2017-08-23T15:18:08.396Z,22.15
2017-08-23T15:18:43.242Z,22.23
2017-08-23T15:19:02.269Z,22.02
2017-08-23T15:19:21.154Z,21.92
2017-08-23T15:20:13.344Z,21.66
2017-08-23T15:20:32.669Z,21.81
2017-08-23T15:20:52.015Z,21.94
2017-08-23T15:21:11.368Z,22
2017-08-23T15:21:31.606Z,21.59
2017-08-23T15:21:50.469Z,21.35
2017-08-23T15:22:09.315Z,21.11
2017-08-23T15:22:41.628Z,20.89
2017-08-23T15:23:01.069Z,20.62
2017-08-23T15:23:20.589Z,20.35
2017-08-23T15:23:37.939Z,20.46
2017-08-23T15:23:56.768Z,20.62
2017-08-23T15:24:16.140Z,20.64
2017-08-23T15:24:35.410Z,20.8
2017-08-23T15:24:54.244Z,20.87
2017-08-23T15:25:13.597Z,20.83
2017-08-23T15:25:32.915Z,20.98
2017-08-23T15:25:51.706Z,21.06
2017-08-23T15:26:11.098Z,21.16
2017-08-23T15:26:30.536Z,20.98
2017-08-23T15:26:49.366Z,20.71
2017-08-23T15:27:08.254Z,20.42
2017-08-23T15:27:27.640Z,20.51
2017-08-23T15:27:46.558Z,20.42
2017-08-23T15:28:05.478Z,20.46
2017-08-23T15:28:24.349Z,20.46
2017-08-23T15:28:43.672Z,20.33
2017-08-23T15:29:16.763Z,20.5
2017-08-23T15:30:08.506Z,20.8
2017-08-23T15:30:27.316Z,21.01
2017-08-23T15:30:46.137Z,20.96
2017-08-23T15:31:05.109Z,21.01
2017-08-23T15:31:24.496Z,21.02
2017-08-23T15:31:43.320Z,21.08
2017-08-23T15:32:02.132Z,21.33
2017-08-23T15:32:20.407Z,21.3
2017-08-23T15:32:39.718Z,21.45
2017-08-23T15:32:59.001Z,21.44
2017-08-23T15:33:18.335Z,21.46
2017-08-23T15:33:37.151Z,21.46
2017-08-23T15:33:56.495Z,21.42
2017-08-23T15:34:14.784Z,21.61
2017-08-23T15:34:34.155Z,21.63
2017-08-23T15:34:53.543Z,21.81
2017-08-23T15:35:12.364Z,21.67
2017-08-23T15:35:31.146Z,21.59
2017-08-23T15:35:49.998Z,21.42
2017-08-23T15:36:09.318Z,21.44
2017-08-23T15:36:28.637Z,21.49
2017-08-23T15:37:02.144Z,21.48
2017-08-23T15:37:21.707Z,21.42
2017-08-23T15:37:41.087Z,21.46
2017-08-23T15:38:00.843Z,21.44
2017-08-23T15:38:19.621Z,21.45
2017-08-23T15:38:39.166Z,21.61
2017-08-23T15:38:58.526Z,21.78
2017-08-23T15:39:17.358Z,21.75
2017-08-23T15:39:35.652Z,21.82
2017-08-23T15:39:55.198Z,22.05
2017-08-23T15:40:14.595Z,22.17
2017-08-23T15:40:33.305Z,22.24
2017-08-23T15:41:06.079Z,22.2
2017-08-23T15:41:38.887Z,22.19
2017-08-23T15:41:57.691Z,22.17
2017-08-23T15:42:31.010Z,22.07
2017-08-23T15:42:50.393Z,21.75
2017-08-23T15:43:09.744Z,21.86
2017-08-23T15:43:28.590Z,21.82
2017-08-23T15:43:48.135Z,21.64
2017-08-23T15:44:06.932Z,21.53
2017-08-23T15:44:25.750Z,21.75
2017-08-23T15:44:44.584Z,21.63
2017-08-23T15:45:03.953Z,21.76
2017-08-23T15:45:22.216Z,21.79
2017-08-23T15:45:41.539Z,21.91
2017-08-23T15:45:59.829Z,21.89
2017-08-23T15:46:18.643Z,21.7
2017-08-23T15:46:38.031Z,21.39
2017-08-23T15:46:56.803Z,21.19
2017-08-23T15:47:15.618Z,21.26
2017-08-23T15:47:34.455Z,21.29
2017-08-23T15:47:53.786Z,21.23
2017-08-23T15:48:12.070Z,21.21
2017-08-23T15:48:31.417Z,21.16
2017-08-23T15:48:50.199Z,21.23
2017-08-23T15:49:08.987Z,21.19
2017-08-23T15:49:27.770Z,21.23
2017-08-23T15:49:46.057Z,21.23
2017-08-23T15:50:05.397Z,21.24
2017-08-23T15:50:24.750Z,21.42
2017-08-23T15:50:43.600Z,21.56
2017-08-23T15:51:02.394Z,21.79
2017-08-23T15:51:21.713Z,21.85
2017-08-23T15:51:41.020Z,21.92
2017-08-23T15:52:00.353Z,22.08
2017-08-23T15:52:19.132Z,22.17
2017-08-23T15:52:38.444Z,22.26
2017-08-23T15:52:57.776Z,22.38
2017-08-23T15:53:17.148Z,22.28
2017-08-23T15:53:36.446Z,22.3
2017-08-23T15:53:55.527Z,22.56
2017-08-23T15:54:14.946Z,22.75
2017-08-23T15:54:33.781Z,22.86
2017-08-23T15:54:53.091Z,22.77
2017-08-23T15:55:12.395Z,22.71
2017-08-23T15:55:31.767Z,22.38
2017-08-23T15:55:51.143Z,22.2
2017-08-23T15:56:10.440Z,22.32
2017-08-23T15:56:28.725Z,22.34
2017-08-23T15:56:48.064Z,22.46
2017-08-23T15:57:06.866Z,22.49
2017-08-23T15:57:25.165Z,22.63
2017-08-23T15:57:44.682Z,22.67
2017-08-23T15:58:03.517Z,22.77
2017-08-23T15:58:21.786Z,22.86
2017-08-23T15:58:41.100Z,22.77
2017-08-23T15:58:59.400Z,22.57
2017-08-23T15:59:18.697Z,22.57
2017-08-23T15:59:37.989Z,22.46
2017-08-23T15:59:57.294Z,22.69
2017-08-23T16:00:16.607Z,22.68
2017-08-23T16:00:35.405Z,22.84
2017-08-23T16:00:54.737Z,22.93
2017-08-23T16:01:14.019Z,22.9
2017-08-23T16:01:33.357Z,22.92
2017-08-23T16:01:52.656Z,22.92
2017-08-23T16:02:11.452Z,23
2017-08-23T16:02:30.743Z,22.93
2017-08-23T16:02:49.532Z,22.86
2017-08-23T16:03:08.836Z,23.07
2017-08-23T16:03:27.657Z,22.96
2017-08-23T16:03:46.934Z,22.89
2017-08-23T16:04:06.228Z,22.94
2017-08-23T16:04:25.548Z,22.9
2017-08-23T16:04:44.873Z,22.74
2017-08-23T16:05:03.677Z,22.39
2017-08-23T16:05:22.672Z,22.35
2017-08-23T16:05:42.221Z,22.38
2017-08-23T16:06:01.532Z,22.42
2017-08-23T16:06:20.851Z,22.47
2017-08-23T16:06:40.461Z,22.46
2017-08-23T16:06:59.782Z,22.56
2017-08-23T16:07:18.591Z,22.57
2017-08-23T16:07:37.916Z,22.41
2017-08-23T16:07:57.247Z,22.44
2017-08-23T16:08:16.797Z,22.54
2017-08-23T16:08:36.154Z,22.57
2017-08-23T16:08:54.431Z,22.47
2017-08-23T16:09:13.784Z,22.52
2017-08-23T16:10:05.895Z,22.35
2017-08-23T16:10:24.717Z,22.34
2017-08-23T16:10:44.099Z,22.26
2017-08-23T16:11:03.475Z,22.2
2017-08-23T16:11:22.814Z,22.16
2017-08-23T16:11:41.630Z,22.17
2017-08-23T16:12:01.184Z,22.17
2017-08-23T16:12:19.459Z,22.3
2017-08-23T16:12:38.753Z,22.35
2017-08-23T16:12:58.337Z,22.46
2017-08-23T16:13:17.653Z,22.79
2017-08-23T16:13:37.058Z,23
2017-08-23T16:13:56.376Z,23.14
2017-08-23T16:14:14.152Z,23.18
2017-08-23T16:14:33.502Z,23.18
2017-08-23T16:14:53.038Z,23.2
2017-08-23T16:15:11.841Z,23.26
2017-08-23T16:15:30.141Z,23.37
2017-08-23T16:15:48.992Z,23.4
2017-08-23T16:16:07.862Z,23.22
2017-08-23T16:16:26.723Z,23.05
2017-08-23T16:16:46.088Z,22.79
2017-08-23T16:17:05.597Z,22.74
2017-08-23T16:17:23.872Z,22.74
2017-08-23T16:17:43.186Z,22.71
2017-08-23T16:18:01.488Z,22.78
2017-08-23T16:18:20.898Z,22.62
2017-08-23T16:18:39.964Z,22.53
2017-08-23T16:18:59.295Z,22.53
2017-08-23T16:19:18.618Z,22.46
2017-08-23T16:19:36.912Z,22.44
2017-08-23T16:19:56.223Z,22.38
2017-08-23T16:20:15.151Z,22.38
2017-08-23T16:20:34.160Z,22.34
2017-08-23T16:21:08.629Z,22.57
2017-08-23T16:21:26.705Z,22.63
2017-08-23T16:21:46.091Z,22.52
2017-08-23T16:22:05.485Z,22.56
2017-08-23T16:22:23.807Z,22.59
2017-08-23T16:22:42.116Z,22.46
2017-08-23T16:23:01.439Z,22.42
2017-08-23T16:23:20.760Z,22.67
2017-08-23T16:23:39.060Z,22.93
2017-08-23T16:23:58.378Z,22.99
2017-08-23T16:24:17.751Z,22.92
2017-08-23T16:24:37.082Z,23.18
2017-08-23T16:24:56.409Z,23.26
2017-08-23T16:25:14.714Z,23.12
2017-08-23T16:25:33.531Z,23.2
2017-08-23T16:25:52.855Z,23.31
2017-08-23T16:26:11.540Z,23.4
2017-08-23T16:26:44.827Z,23.4
2017-08-23T16:27:04.181Z,23.43
2017-08-23T16:27:23.725Z,23.5
2017-08-23T16:27:42.951Z,23.42
2017-08-23T16:28:01.805Z,23.45
2017-08-23T16:28:34.999Z,23.17
2017-08-23T16:29:07.993Z,23.07
2017-08-23T16:29:27.374Z,23.22
2017-08-23T16:29:46.906Z,23.27
2017-08-23T16:30:05.945Z,23.12
2017-08-23T16:31:12.644Z,23.38
2017-08-23T16:31:31.633Z,23.35
2017-08-23T16:31:50.149Z,23.26
2017-08-23T16:32:09.165Z,23.33
2017-08-23T16:32:27.969Z,23.42
2017-08-23T16:33:00.207Z,23.45
2017-08-23T16:33:19.543Z,23.43
2017-08-23T16:33:38.697Z,23.61
2017-08-23T16:33:58.325Z,23.65
2017-08-23T16:34:16.239Z,23.82
2017-08-23T16:34:34.582Z,23.79
2017-08-23T16:35:07.410Z,24.04
2017-08-23T16:35:27.333Z,24.08
2017-08-23T16:35:46.660Z,24.16
2017-08-23T16:36:06.611Z,24.12
2017-08-23T16:36:39.423Z,24.2
2017-08-23T16:36:58.930Z,24.23
2017-08-23T16:37:17.439Z,24.27
2017-08-23T16:37:36.755Z,24.4
2017-08-23T16:37:55.961Z,24.32
2017-08-23T16:38:15.704Z,24.29
2017-08-23T16:38:34.682Z,24.19
2017-08-23T16:38:54.244Z,23.95
2017-08-23T16:39:13.806Z,23.86
2017-08-23T16:39:32.867Z,23.71
2017-08-23T16:40:25.177Z,23.5
2017-08-23T16:40:44.792Z,23.35
2017-08-23T16:41:04.164Z,23.4
2017-08-23T16:41:23.806Z,23.46
2017-08-23T16:41:43.218Z,23.72
2017-08-23T16:42:02.444Z,23.53
2017-08-23T16:42:20.549Z,23.42
2017-08-23T16:42:39.175Z,23.31
2017-08-23T16:42:58.052Z,23.17
2017-08-23T16:43:31.409Z,23.17
2017-08-23T16:43:50.357Z,23.2
2017-08-23T16:44:09.299Z,23.22
2017-08-23T16:44:28.226Z,23.22
2017-08-23T16:44:46.560Z,23.07
2017-08-23T16:45:06.517Z,23.08
2017-08-23T16:45:24.859Z,23.22
2017-08-23T16:45:44.618Z,23.43
2017-08-23T16:46:03.724Z,23.72
2017-08-23T16:46:37.061Z,23.74
2017-08-23T16:46:57.152Z,23.6
2017-08-23T16:47:16.815Z,23.61
2017-08-23T16:47:49.687Z,23.49
2017-08-23T16:48:08.522Z,23.43
2017-08-23T16:48:28.110Z,23.53
2017-08-23T16:48:47.479Z,23.72
2017-08-23T16:49:06.639Z,23.83
2017-08-23T16:49:26.058Z,23.86
2017-08-23T16:49:44.365Z,23.86
2017-08-23T16:50:37.055Z,24.29
2017-08-23T16:50:56.674Z,24.38
2017-08-23T16:51:16.653Z,24.54
2017-08-23T16:51:35.777Z,24.3
2017-08-23T16:51:54.658Z,24.52
2017-08-23T16:52:14.259Z,24.76
2017-08-23T16:52:47.147Z,24.91
2017-08-23T16:53:06.523Z,25.09
2017-08-23T16:53:26.144Z,25.23
2017-08-23T16:54:13.127Z,25.09
2017-08-23T16:54:32.658Z,25.16
2017-08-23T16:54:51.787Z,25.15
2017-08-23T16:55:10.787Z,25.31
2017-08-23T16:56:17.634Z,25.38
2017-08-23T16:56:37.267Z,25.35
2017-08-23T16:56:56.926Z,25.34
2017-08-23T16:57:16.182Z,25.16
2017-08-23T16:57:35.653Z,25.23
2017-08-23T16:57:55.585Z,25.08
2017-08-23T16:58:13.634Z,24.97
2017-08-23T16:58:32.518Z,24.93
2017-08-23T16:59:24.543Z,24.47
2017-08-23T16:59:44.041Z,24.25
2017-08-23T17:00:17.415Z,24.19
2017-08-23T17:00:36.923Z,24.08
2017-08-23T17:01:43.547Z,23.97
2017-08-23T17:02:02.431Z,23.93
2017-08-23T17:02:21.881Z,24.1
2017-08-23T17:02:41.481Z,24
2017-08-23T17:03:00.407Z,24.05
2017-08-23T17:03:19.228Z,24.1
2017-08-23T17:03:38.970Z,24.23
2017-08-23T17:03:58.553Z,24.23
2017-08-23T17:04:17.982Z,24.05
2017-08-23T17:04:37.321Z,24.07
2017-08-23T17:04:56.587Z,24.15
2017-08-23T17:05:48.583Z,23.97
2017-08-23T17:06:07.877Z,23.74
2017-08-23T17:06:27.462Z,23.75
2017-08-23T17:06:47.138Z,23.6
2017-08-23T17:07:06.453Z,23.45
2017-08-23T17:07:26.326Z,23.35
2017-08-23T17:07:45.425Z,23.34
2017-08-23T17:08:05.393Z,23.35
2017-08-23T17:08:24.765Z,23.33
2017-08-23T17:08:57.632Z,23.43
2017-08-23T17:09:17.186Z,23.42
2017-08-23T17:09:36.557Z,23.4
2017-08-23T17:10:10.407Z,23.33
2017-08-23T17:10:29.653Z,23.37
2017-08-23T17:10:48.577Z,23.4
2017-08-23T17:11:22.620Z,23.48
2017-08-23T17:11:41.546Z,23.89
2017-08-23T17:12:00.443Z,23.98
2017-08-23T17:12:19.255Z,24.19
2017-08-23T17:12:52.788Z,24.27
2017-08-23T17:13:11.370Z,24.23
2017-08-23T17:13:44.233Z,24.42
2017-08-23T17:14:16.758Z,24.88
2017-08-23T17:14:35.761Z,24.95
2017-08-23T17:14:55.092Z,25.01
2017-08-23T17:15:28.458Z,25.19
2017-08-23T17:15:48.475Z,25.52
2017-08-23T17:16:06.994Z,25.5
2017-08-23T17:16:26.560Z,25.4
2017-08-23T17:16:45.867Z,25.38
2017-08-23T17:17:05.437Z,25.35
2017-08-23T17:17:25.016Z,25.28
2017-08-23T17:17:58.496Z,25.2
2017-08-23T17:18:17.760Z,25.04
2017-08-23T17:18:37.211Z,24.91
2017-08-23T17:18:56.717Z,24.85
2017-08-23T17:19:15.580Z,25.02
2017-08-23T17:19:48.997Z,25.09
2017-08-23T17:20:07.903Z,25.09
2017-08-23T17:20:26.497Z,25.23
2017-08-23T17:20:46.209Z,25.22
2017-08-23T17:21:05.157Z,25.23
2017-08-23T17:21:24.735Z,25.3
2017-08-23T17:21:44.184Z,25.1
2017-08-23T17:22:03.607Z,25.02
2017-08-23T17:22:22.438Z,24.82
2017-08-23T17:22:41.938Z,24.8
2017-08-23T17:23:01.545Z,24.67
2017-08-23T17:23:34.389Z,24.8
2017-08-23T17:23:52.735Z,24.71
2017-08-23T17:24:12.991Z,24.64
2017-08-23T17:24:45.293Z,24.95
2017-08-23T17:25:04.597Z,24.98
2017-08-23T17:25:23.415Z,25.08
2017-08-23T17:25:42.847Z,24.97
2017-08-23T17:26:02.205Z,24.94
2017-08-23T17:26:20.622Z,24.94
2017-08-23T17:26:38.978Z,25.04
2017-08-23T17:26:58.825Z,25.01
2017-08-23T17:27:18.283Z,24.98
2017-08-23T17:27:37.614Z,25.09
2017-08-23T17:27:57.029Z,25.02
2017-08-23T17:28:16.353Z,24.83
2017-08-23T17:28:35.633Z,24.73
2017-08-23T17:28:54.922Z,24.62
2017-08-23T17:29:13.730Z,24.56
2017-08-23T17:29:33.037Z,24.59
2017-08-23T17:29:52.422Z,24.54
2017-08-23T17:30:11.268Z,24.47
2017-08-23T17:30:30.731Z,24.4
2017-08-23T17:30:49.988Z,24.25
2017-08-23T17:31:08.822Z,24.23
2017-08-23T17:31:26.146Z,24.17
2017-08-23T17:31:59.706Z,24.37
2017-08-23T17:32:19.105Z,24.42
2017-08-23T17:32:37.952Z,24.41
2017-08-23T17:32:57.399Z,24.48
2017-08-23T17:33:15.737Z,24.57
2017-08-23T17:33:34.249Z,24.56
2017-08-23T17:33:53.698Z,24.78
2017-08-23T17:34:12.574Z,24.73
2017-08-23T17:34:31.455Z,24.5
2017-08-23T17:34:51.318Z,24.56
2017-08-23T17:35:10.759Z,24.3
2017-08-23T17:35:29.789Z,24.38
2017-08-23T17:36:03.157Z,24.19
2017-08-23T17:36:22.531Z,24.22
2017-08-23T17:36:41.825Z,24.19
2017-08-23T17:37:01.163Z,24.3
2017-08-23T17:37:20.460Z,24.57
2017-08-23T17:37:38.811Z,24.45
2017-08-23T17:37:58.210Z,24.41
2017-08-23T17:38:17.602Z,24.44
2017-08-23T17:38:36.451Z,24.47
2017-08-23T17:39:28.799Z,24.57
2017-08-23T17:39:47.634Z,24.73
2017-08-23T17:40:06.990Z,24.82
2017-08-23T17:40:25.835Z,24.86
2017-08-23T17:40:44.932Z,25.15
2017-08-23T17:41:17.729Z,25.19
2017-08-23T17:41:36.071Z,25.25
2017-08-23T17:41:54.876Z,25.12
2017-08-23T17:42:14.917Z,25.16
2017-08-23T17:42:35.577Z,25.1
2017-08-23T17:42:54.897Z,25.19
2017-08-23T17:43:14.257Z,25.23
2017-08-23T17:43:33.559Z,25.08
2017-08-23T17:43:51.966Z,25.17
2017-08-23T17:44:11.315Z,25.09
2017-08-23T17:44:30.636Z,25.17
2017-08-23T17:44:49.451Z,25.23
2017-08-23T17:45:08.734Z,25.31
2017-08-23T17:45:27.571Z,25.56
2017-08-23T17:45:46.414Z,25.64
2017-08-23T17:46:05.726Z,25.86
2017-08-23T17:46:27.330Z,25.84
2017-08-23T17:46:47.438Z,25.77
2017-08-23T17:47:06.826Z,25.53
2017-08-23T17:47:26.181Z,25.57
2017-08-23T17:47:45.079Z,25.55
2017-08-23T17:48:04.393Z,25.57
2017-08-23T17:48:23.211Z,25.59
2017-08-23T17:48:41.507Z,25.62
2017-08-23T17:49:00.830Z,25.55
2017-08-23T17:49:19.151Z,25.82
2017-08-23T17:49:37.416Z,25.86
2017-08-23T17:49:56.777Z,25.96
2017-08-23T17:50:16.162Z,26.27
2017-08-23T17:50:35.493Z,25.86
2017-08-23T17:50:54.796Z,26.09
2017-08-23T17:51:13.637Z,26.24
2017-08-23T17:51:32.935Z,26.49
2017-08-23T17:51:52.258Z,26.61
2017-08-23T17:52:11.795Z,26.6
2017-08-23T17:52:31.149Z,26.45
2017-08-23T17:52:50.483Z,26.62
2017-08-23T17:53:09.820Z,26.4
2017-08-23T17:53:29.154Z,26.53
2017-08-23T17:53:47.465Z,26.49
2017-08-23T17:54:06.815Z,26.52
2017-08-23T17:54:25.616Z,26.64
2017-08-23T17:54:44.950Z,26.83
2017-08-23T17:55:04.321Z,26.55
2017-08-23T17:55:23.835Z,26.92
2017-08-23T17:55:42.647Z,26.89
2017-08-23T17:56:01.434Z,26.9
2017-08-23T17:56:20.762Z,26.61
2017-08-23T17:56:40.053Z,26.43
2017-08-23T17:56:58.851Z,26.15
2017-08-23T17:57:18.205Z,26.07
2017-08-23T17:57:36.998Z,26.09
2017-08-23T17:57:55.786Z,26.27
2017-08-23T17:58:14.674Z,26.47
2017-08-23T17:58:33.459Z,26.52
2017-08-23T17:58:51.234Z,26.58
2017-08-23T17:59:10.120Z,26.5
2017-08-23T17:59:29.485Z,26.39
2017-08-23T17:59:48.454Z,26.01
2017-08-23T18:00:07.841Z,25.93
2017-08-23T18:00:27.672Z,25.96
2017-08-23T18:00:47.481Z,25.78
2017-08-23T18:01:06.290Z,25.68
2017-08-23T18:01:25.657Z,25.94
2017-08-23T18:01:44.480Z,26.27
2017-08-23T18:02:03.831Z,26.49
2017-08-23T18:02:23.232Z,26.53
2017-08-23T18:02:41.764Z,26.4
2017-08-23T18:03:00.629Z,26.28
2017-08-23T18:03:19.988Z,26.3
2017-08-23T18:03:38.832Z,26.3
2017-08-23T18:03:57.248Z,26.07
2017-08-23T18:04:16.171Z,26.08
2017-08-23T18:04:34.997Z,26.12
2017-08-23T18:04:53.880Z,26.16
2017-08-23T18:05:12.778Z,26.16
2017-08-23T18:05:31.645Z,26.07
2017-08-23T18:05:50.437Z,25.82
2017-08-23T18:06:09.780Z,25.64
2017-08-23T18:06:28.696Z,25.57
2017-08-23T18:06:48.035Z,25.68
2017-08-23T18:07:06.431Z,25.56
2017-08-23T18:07:25.838Z,25.49
2017-08-23T18:07:45.254Z,25.38
2017-08-23T18:08:04.732Z,25.53
2017-08-23T18:08:24.156Z,25.42
2017-08-23T18:08:43.021Z,25.4
2017-08-23T18:09:01.853Z,25.28
2017-08-23T18:09:21.215Z,25.32
2017-08-23T18:09:40.061Z,25.2
2017-08-23T18:09:58.352Z,25.3
2017-08-23T18:10:17.765Z,25.35
2017-08-23T18:10:37.411Z,25.41
2017-08-23T18:10:57.149Z,25.37
2017-08-23T18:11:16.527Z,25.38
2017-08-23T18:11:35.355Z,25.37
2017-08-23T18:12:26.972Z,25.78
2017-08-23T18:12:46.371Z,25.84
2017-08-23T18:13:05.725Z,25.89
2017-08-23T18:13:25.127Z,25.84
2017-08-23T18:13:44.450Z,25.92
2017-08-23T18:14:03.837Z,26.24
2017-08-23T18:14:23.182Z,26.31
2017-08-23T18:14:41.493Z,26.58
2017-08-23T18:15:01.396Z,26.49
2017-08-23T18:15:20.774Z,26.45
2017-08-23T18:15:40.239Z,26.23
2017-08-23T18:15:58.624Z,26.27
2017-08-23T18:16:16.902Z,26.16
2017-08-23T18:16:35.835Z,26.04
2017-08-23T18:16:54.173Z,26.2
2017-08-23T18:17:26.720Z,26.31
2017-08-23T18:17:45.131Z,26.31
2017-08-23T18:18:04.559Z,26.28
2017-08-23T18:18:23.986Z,26.34
2017-08-23T18:18:43.425Z,26.27
2017-08-23T18:19:01.768Z,26.43
2017-08-23T18:19:21.172Z,26.43
2017-08-23T18:19:38.982Z,26.47
2017-08-23T18:20:11.303Z,26.18
2017-08-23T18:20:30.120Z,25.96
2017-08-23T18:20:49.460Z,25.93
2017-08-23T18:21:09.224Z,26.08
2017-08-23T18:21:27.529Z,25.94
2017-08-23T18:21:47.091Z,25.93
2017-08-23T18:22:06.506Z,25.83
2017-08-23T18:22:25.860Z,25.68
2017-08-23T18:22:45.253Z,25.56
2017-08-23T18:23:03.984Z,25.46
2017-08-23T18:23:22.867Z,25.56
2017-08-23T18:23:42.302Z,25.52
2017-08-23T18:24:00.630Z,25.68
2017-08-23T18:24:20.025Z,25.68
2017-08-23T18:24:40.019Z,25.86
2017-08-23T18:24:58.531Z,25.84
2017-08-23T18:25:17.422Z,25.99
2017-08-23T18:25:36.889Z,25.87
2017-08-23T18:25:56.344Z,26.04
2017-08-23T18:26:14.197Z,25.96
2017-08-23T18:26:33.799Z,25.92
2017-08-23T18:26:53.236Z,25.89
2017-08-23T18:27:12.841Z,25.79
2017-08-23T18:27:32.253Z,26.05
2017-08-23T18:27:51.627Z,26.01
2017-08-23T18:28:10.495Z,26.28
2017-08-23T18:28:29.812Z,26.4
2017-08-23T18:28:48.810Z,26.49
2017-08-23T18:29:07.618Z,26.47
2017-08-23T18:29:27.472Z,26.64
2017-08-23T18:29:46.883Z,26.55
2017-08-23T18:30:05.750Z,26.52
2017-08-23T18:30:24.725Z,26.53
2017-08-23T18:30:43.671Z,26.45
2017-08-23T18:31:02.091Z,26.5
2017-08-23T18:31:21.505Z,26.58
2017-08-23T18:31:40.401Z,26.52
2017-08-23T18:31:58.770Z,26.55
2017-08-23T18:32:18.157Z,26.32
2017-08-23T18:32:37.024Z,26.05
2017-08-23T18:32:55.419Z,25.93
2017-08-23T18:33:14.783Z,25.93
2017-08-23T18:33:34.202Z,25.86
2017-08-23T18:33:52.537Z,25.62
2017-08-23T18:34:11.903Z,25.55
2017-08-23T18:34:30.798Z,25.6
2017-08-23T18:34:49.657Z,25.47
2017-08-23T18:35:08.534Z,25.38
2017-08-23T18:35:26.396Z,25.41
2017-08-23T18:35:45.408Z,25.53
2017-08-23T18:36:19.006Z,25.6
2017-08-23T18:36:38.675Z,25.68
2017-08-23T18:37:12.072Z,25.67
2017-08-23T18:37:30.479Z,25.72
2017-08-23T18:37:49.506Z,25.72
2017-08-23T18:38:08.839Z,25.86
2017-08-23T18:38:27.223Z,25.99
2017-08-23T18:38:46.297Z,26.15
2017-08-23T18:39:04.650Z,26.2
2017-08-23T18:39:23.539Z,26.05
2017-08-23T18:39:44.511Z,26.01
2017-08-23T18:40:05.780Z,26.01
2017-08-23T18:40:23.745Z,26.02
2017-08-23T18:40:41.677Z,25.99
2017-08-23T18:41:01.212Z,26.05
2017-08-23T18:41:20.501Z,26.25
2017-08-23T18:41:39.855Z,26.2
2017-08-23T18:41:58.701Z,26.05
2017-08-23T18:42:18.042Z,25.99
2017-08-23T18:42:37.389Z,26.05
2017-08-23T18:42:56.199Z,25.96
2017-08-23T18:43:29.525Z,26.04
2017-08-23T18:43:48.314Z,26.27
2017-08-23T18:44:07.684Z,26.34
2017-08-23T18:44:26.495Z,26.43
2017-08-23T18:44:45.791Z,26.65
2017-08-23T18:45:04.605Z,26.71
2017-08-23T18:45:23.573Z,26.84
2017-08-23T18:45:42.398Z,26.68
2017-08-23T18:46:01.743Z,26.84
2017-08-23T18:46:20.561Z,26.87
2017-08-23T18:46:38.846Z,26.87
2017-08-23T18:46:58.139Z,26.87
2017-08-23T18:47:17.489Z,27.07
2017-08-23T18:47:36.295Z,27.04
2017-08-23T18:47:55.611Z,27.13
2017-08-23T18:48:13.915Z,27.13
2017-08-23T18:48:33.259Z,27.16
2017-08-23T18:48:52.088Z,27.21
2017-08-23T18:49:11.383Z,27.2
2017-08-23T18:49:29.655Z,27.35
2017-08-23T18:49:48.447Z,27.53
2017-08-23T18:50:07.776Z,27.57
2017-08-23T18:50:26.573Z,27.74
2017-08-23T18:50:45.356Z,27.72
2017-08-23T18:51:04.841Z,27.94
2017-08-23T18:51:23.643Z,28.13
2017-08-23T18:51:42.468Z,28.11
2017-08-23T18:52:01.801Z,28.09
2017-08-23T18:52:20.591Z,28.19
2017-08-23T18:52:39.392Z,28.2
2017-08-23T18:52:57.656Z,28.25